Time,TemperatureF,DewpointF,PressureIn,WindDirection,WindDirectionDegrees,WindSpeedMPH,WindSpeedGustMPH,Humidity,HourlyPrecipIn,Conditions,Clouds,dailyrainin,SoftwareType,DateUTC
2013-11-12 00:01:00,47.2,32.8,29.91,SW,227,1.0,7.0,57,0.00,,OVC090,0.00,VWS V14.01,2013-11-12 05:01:00,
2013-11-12 00:02:00,47.2,32.8,29.91,SSW,207,1.0,7.0,57,0.00,,OVC090,0.00,VWS V14.01,2013-11-12 05:02:00,
2013-11-12 00:07:00,47.2,33.2,29.91,SSW,206,1.0,2.0,58,0.00,,OVC090,0.00,VWS V14.01,2013-11-12 05:07:00,
2013-11-12 00:12:00,47.2,32.8,29.91,SSW,202,0.0,5.0,57,0.00,,OVC090,0.00,VWS V14.01,2013-11-12 05:12:00,
2013-11-12 00:17:00,47.3,32.8,29.90,SSW,207,2.0,5.0,57,0.00,,OVC090,0.00,VWS V14.01,2013-11-12 05:17:00,
2013-11-12 00:22:00,47.4,33.0,29.90,SSW,206,0.0,5.0,57,0.00,,OVC090,0.00,VWS V14.01,2013-11-12 05:22:00,
2013-11-12 00:27:00,47.3,33.7,29.90,WSW,254,1.0,5.0,59,0.00,,OVC090,0.00,VWS V14.01,2013-11-12 05:27:00,
2013-11-12 00:32:00,47.6,32.7,29.90,SSE,165,4.0,12.0,56,0.00,,OVC090,0.00,VWS V14.01,2013-11-12 05:32:00,
2013-11-12 00:37:00,47.8,32.9,29.90,SW,220,3.0,7.0,56,0.00,,OVC090,0.00,VWS V14.01,2013-11-12 05:37:00,
2013-11-12 00:42:00,48.0,33.1,29.89,SSW,205,7.0,7.0,56,0.00,,OVC090,0.00,VWS V14.01,2013-11-12 05:42:00,
2013-11-12 00:47:00,48.0,32.6,29.90,SSW,212,1.0,8.0,55,0.00,,OVC100,0.00,VWS V14.01,2013-11-12 05:47:00,
2013-11-12 00:52:00,48.0,32.6,29.90,SSW,198,1.0,8.0,55,0.00,,OVC100,0.00,VWS V14.01,2013-11-12 05:52:00,
2013-11-12 00:57:00,48.0,33.1,29.90,WSW,239,3.0,8.0,56,0.00,,OVC100,0.00,VWS V14.01,2013-11-12 05:57:00,
2013-11-12 01:02:00,47.9,33.4,29.90,South,189,8.0,8.0,57,0.00,,OVC100,0.00,VWS V14.01,2013-11-12 06:02:00,
2013-11-12 01:07:00,48.1,33.6,29.90,SW,223,4.0,9.0,57,0.00,,OVC100,0.00,VWS V14.01,2013-11-12 06:07:00,
2013-11-12 01:12:00,48.4,33.4,29.89,South,177,5.0,12.0,56,0.00,,OVC100,0.00,VWS V14.01,2013-11-12 06:12:00,
2013-11-12 01:17:00,48.6,33.2,29.90,SW,236,5.0,12.0,55,0.00,,OVC100,0.00,VWS V14.01,2013-11-12 06:17:00,
2013-11-12 01:22:00,48.7,33.3,29.90,West,267,4.0,12.0,55,0.00,,OVC100,0.00,VWS V14.01,2013-11-12 06:22:00,
2013-11-12 01:27:00,48.8,34.3,29.90,SSW,200,1.0,12.0,57,0.00,,OVC100,0.00,VWS V14.01,2013-11-12 06:27:00,
2013-11-12 01:32:00,48.6,34.9,29.90,West,263,15.0,15.0,59,0.00,,OVC100,0.00,VWS V14.01,2013-11-12 06:32:00,
2013-11-12 01:37:00,48.6,34.9,29.91,SSW,193,7.0,15.0,59,0.00,,OVC100,0.00,VWS V14.01,2013-11-12 06:37:00,
2013-11-12 01:42:00,48.3,35.9,29.91,South,170,4.0,15.0,62,0.00,,OVC100,0.00,VWS V14.01,2013-11-12 06:42:00,
2013-11-12 01:47:00,47.9,36.3,29.91,SW,221,3.0,15.0,64,0.00,,OVC090,0.00,VWS V14.01,2013-11-12 06:47:00,
2013-11-12 01:52:00,47.6,36.4,29.92,SW,219,6.0,15.0,65,0.00,,OVC090,0.00,VWS V14.01,2013-11-12 06:52:00,
2013-11-12 01:57:00,47.3,36.9,29.92,SSW,208,6.0,15.0,67,0.00,,OVC090,0.00,VWS V14.01,2013-11-12 06:57:00,
2013-11-12 02:02:00,46.9,36.9,29.91,SSW,197,3.0,15.0,68,0.00,,OVC090,0.00,VWS V14.01,2013-11-12 07:02:00,
2013-11-12 02:07:00,46.7,37.1,29.91,WSW,245,6.0,12.0,69,0.00,,OVC090,0.00,VWS V14.01,2013-11-12 07:07:00,
2013-11-12 02:12:00,46.4,37.9,29.91,SW,229,5.0,12.0,72,0.00,,OVC090,0.00,VWS V14.01,2013-11-12 07:12:00,
2013-11-12 02:18:00,46.0,38.2,29.91,SSW,198,3.0,12.0,74,0.00,,OVC090,0.00,VWS V14.01,2013-11-12 07:18:00,
2013-11-12 02:23:00,45.6,38.2,29.91,SSW,212,3.0,12.0,75,0.01,,OVC090,0.01,VWS V14.01,2013-11-12 07:23:00,
2013-11-12 02:28:00,45.3,39.2,29.91,SW,226,1.0,12.0,79,0.01,,OVC090,0.01,VWS V14.01,2013-11-12 07:28:00,
2013-11-12 02:33:00,45.0,38.9,29.91,WSW,242,2.0,4.0,79,0.01,,OVC090,0.01,VWS V14.01,2013-11-12 07:33:00,
2013-11-12 02:38:00,44.7,38.9,29.91,SW,215,0.0,10.0,80,0.01,,OVC090,0.01,VWS V14.01,2013-11-12 07:38:00,
2013-11-12 02:43:00,44.6,39.1,29.91,SW,227,2.0,10.0,81,0.01,,OVC090,0.01,VWS V14.01,2013-11-12 07:43:00,
2013-11-12 02:48:00,44.3,38.8,29.91,South,185,2.0,10.0,81,0.01,,-RA,0.01,VWS V14.01,2013-11-12 07:48:00,
2013-11-12 02:53:00,44.2,38.8,29.90,SSW,204,1.0,10.0,81,0.01,,-RA,0.01,VWS V14.01,2013-11-12 07:53:00,
2013-11-12 02:58:00,44.1,39.3,29.91,SSW,192,2.0,10.0,83,0.01,,-RA,0.01,VWS V14.01,2013-11-12 07:58:00,
2013-11-12 03:03:00,43.9,39.1,29.90,South,182,2.0,3.0,83,0.01,,-RA,0.01,VWS V14.01,2013-11-12 08:03:00,
2013-11-12 03:08:00,43.8,39.0,29.90,South,191,2.0,5.0,83,0.02,,-RA,0.02,VWS V14.01,2013-11-12 08:08:00,
2013-11-12 03:13:00,43.8,39.0,29.90,SW,225,0.0,6.0,83,0.02,,-RA,0.02,VWS V14.01,2013-11-12 08:13:00,
2013-11-12 03:18:00,43.8,39.0,29.90,SSW,196,3.0,6.0,83,0.02,,-RA,0.02,VWS V14.01,2013-11-12 08:18:00,
2013-11-12 03:23:00,43.7,39.2,29.90,SW,225,1.0,6.0,84,0.02,,-RA,0.02,VWS V14.01,2013-11-12 08:23:00,
2013-11-12 03:28:00,43.6,39.4,29.90,SSW,194,1.0,6.0,85,0.02,,-RA,0.02,VWS V14.01,2013-11-12 08:28:00,
2013-11-12 03:33:00,43.4,39.5,29.90,SSW,212,1.0,1.0,86,0.01,,-RA,0.02,VWS V14.01,2013-11-12 08:33:00,
2013-11-12 03:38:00,43.3,39.4,29.90,SSW,203,1.0,3.0,86,0.01,,-RA,0.02,VWS V14.01,2013-11-12 08:38:00,
2013-11-12 03:43:00,43.2,39.6,29.91,SSW,202,0.0,3.0,87,0.01,,-RA,0.02,VWS V14.01,2013-11-12 08:43:00,
2013-11-12 03:48:00,43.1,39.5,29.91,SSW,202,0.0,3.0,87,0.01,,-RA,0.02,VWS V14.01,2013-11-12 08:48:00,
2013-11-12 03:53:00,43.1,39.5,29.91,WSW,246,2.0,3.0,87,0.01,,-RA,0.02,VWS V14.01,2013-11-12 08:53:00,
2013-11-12 03:58:00,43.0,39.4,29.91,South,182,0.0,3.0,87,0.01,,-RA,0.02,VWS V14.01,2013-11-12 08:58:00,
2013-11-12 04:03:00,43.0,39.4,29.91,South,182,0.0,1.0,87,0.01,,-RA,0.02,VWS V14.01,2013-11-12 09:03:00,
2013-11-12 04:08:00,42.9,39.6,29.92,South,182,2.0,2.0,88,0.02,,-RA,0.03,VWS V14.01,2013-11-12 09:08:00,
2013-11-12 04:13:00,42.9,39.9,29.92,SSW,205,1.0,3.0,89,0.02,,-RA,0.03,VWS V14.01,2013-11-12 09:13:00,
2013-11-12 04:18:00,42.8,39.8,29.92,SSW,205,0.0,3.0,89,0.02,,-RA,0.03,VWS V14.01,2013-11-12 09:18:00,
2013-11-12 04:23:00,42.7,39.7,29.92,WSW,244,0.0,3.0,89,0.02,,-RA,0.03,VWS V14.01,2013-11-12 09:23:00,
2013-11-12 04:28:00,42.7,39.7,29.92,WSW,244,0.0,3.0,89,0.02,,-RA,0.03,VWS V14.01,2013-11-12 09:28:00,
2013-11-12 04:33:00,42.7,39.7,29.92,WSW,244,0.0,1.0,89,0.01,,-RA,0.03,VWS V14.01,2013-11-12 09:33:00,
2013-11-12 04:38:00,42.7,39.7,29.92,WSW,244,0.0,2.0,89,0.01,,-RA,0.03,VWS V14.01,2013-11-12 09:38:00,
2013-11-12 04:43:00,42.6,39.9,29.92,WSW,244,0.0,2.0,90,0.01,,-RA,0.03,VWS V14.01,2013-11-12 09:43:00,
2013-11-12 04:48:00,42.6,39.9,29.92,SW,232,1.0,2.0,90,0.02,,-RA,0.04,VWS V14.01,2013-11-12 09:48:00,
2013-11-12 04:53:00,42.5,39.8,29.92,ESE,116,2.0,5.0,90,0.02,,-RA,0.04,VWS V14.01,2013-11-12 09:53:00,
2013-11-12 04:58:00,42.4,39.4,29.93,West,269,2.0,5.0,89,0.02,,-RA,0.04,VWS V14.01,2013-11-12 09:58:00,
2013-11-12 05:03:00,42.4,39.4,29.93,SSW,193,0.0,1.0,89,0.03,,-RA,0.05,VWS V14.01,2013-11-12 10:03:00,
2013-11-12 05:08:00,42.2,39.2,29.93,SW,217,0.0,6.0,89,0.03,,-RA,0.05,VWS V14.01,2013-11-12 10:08:00,
2013-11-12 05:13:00,42.2,39.5,29.93,SE,144,1.0,7.0,90,0.03,,-RA,0.05,VWS V14.01,2013-11-12 10:13:00,
2013-11-12 05:18:00,42.0,39.0,29.94,WNW,296,1.0,8.0,89,0.04,,-RA,0.06,VWS V14.01,2013-11-12 10:18:00,
2013-11-12 05:23:00,41.8,38.8,29.93,SW,225,0.0,8.0,89,0.04,,-RA,0.06,VWS V14.01,2013-11-12 10:23:00,
2013-11-12 05:28:00,41.6,38.9,29.93,SSW,194,2.0,8.0,90,0.05,,-RA,0.07,VWS V14.01,2013-11-12 10:28:00,
2013-11-12 05:33:00,41.3,38.3,29.94,NNE,29,0.0,1.0,89,0.04,,-RA,0.07,VWS V14.01,2013-11-12 10:33:00,
2013-11-12 05:38:00,41.1,38.1,29.94,ESE,119,1.0,3.0,89,0.04,,-RA,0.07,VWS V14.01,2013-11-12 10:38:00,
2013-11-12 05:43:00,40.9,38.2,29.94,WNW,303,0.0,3.0,90,0.04,,-RA,0.07,VWS V14.01,2013-11-12 10:43:00,
2013-11-12 05:48:00,40.7,38.0,29.94,SSE,161,0.0,3.0,90,0.04,,-RA,0.07,VWS V14.01,2013-11-12 10:48:00,
2013-11-12 05:53:00,40.6,38.2,29.94,South,187,3.0,4.0,91,0.04,,-RA,0.07,VWS V14.01,2013-11-12 10:53:00,
2013-11-12 05:58:00,40.5,37.8,29.94,SE,142,2.0,4.0,90,0.05,,-RA,0.08,VWS V14.01,2013-11-12 10:58:00,
2013-11-12 06:03:00,40.5,37.8,29.95,SW,234,0.0,4.0,90,0.03,,-RA,0.08,VWS V14.01,2013-11-12 11:03:00,
2013-11-12 06:08:00,40.4,37.7,29.95,SSW,209,0.0,5.0,90,0.03,,-RA,0.08,VWS V14.01,2013-11-12 11:08:00,
2013-11-12 06:13:00,40.3,37.9,29.96,NNW,343,0.0,11.0,91,0.04,,-RA,0.09,VWS V14.01,2013-11-12 11:13:00,
2013-11-12 06:18:00,39.7,37.0,29.96,NNE,29,2.0,11.0,90,0.04,,-RA,0.09,VWS V14.01,2013-11-12 11:18:00,
2013-11-12 06:23:00,39.1,36.4,29.97,East,96,5.0,11.0,90,0.04,,-RA,0.09,VWS V14.01,2013-11-12 11:23:00,
2013-11-12 06:28:00,38.2,35.5,29.97,NW,323,1.0,12.0,90,0.05,,-RA,0.10,VWS V14.01,2013-11-12 11:28:00,
2013-11-12 06:33:00,37.6,34.9,29.98,North,5,0.0,2.0,90,0.03,,-RA,0.10,VWS V14.01,2013-11-12 11:33:00,
2013-11-12 06:38:00,37.2,34.8,29.98,North,5,2.0,7.0,91,0.03,,-RA,0.10,VWS V14.01,2013-11-12 11:38:00,
2013-11-12 06:43:00,37.0,34.9,29.99,North,5,2.0,8.0,92,0.03,,-RA,0.10,VWS V14.01,2013-11-12 11:43:00,
2013-11-12 06:48:00,36.5,34.1,30.00,North,5,3.0,9.0,91,0.03,,-RA,0.10,VWS V14.01,2013-11-12 11:48:00,
2013-11-12 06:53:00,36.0,33.4,30.00,North,355,3.0,11.0,90,0.03,,-RA,0.10,VWS V14.01,2013-11-12 11:53:00,
2013-11-12 06:58:00,35.6,33.0,30.00,North,5,2.0,11.0,90,0.03,,-RA,0.10,VWS V14.01,2013-11-12 11:58:00,
2013-11-12 07:03:00,35.3,32.9,30.00,NW,316,4.0,5.0,91,0.02,,-RA,0.10,VWS V14.01,2013-11-12 12:03:00,
2013-11-12 07:08:00,35.1,32.7,30.00,North,355,2.0,10.0,91,0.02,,-RA,0.10,VWS V14.01,2013-11-12 12:08:00,
2013-11-12 07:13:00,35.0,32.9,30.01,NNW,347,1.0,10.0,92,0.03,,-RA,0.11,VWS V14.01,2013-11-12 12:13:00,
2013-11-12 07:18:00,34.8,32.7,30.01,WSW,250,0.0,10.0,92,0.03,,-RA,0.11,VWS V14.01,2013-11-12 12:18:00,
2013-11-12 07:23:00,34.7,32.6,30.01,North,5,2.0,10.0,92,0.03,,-RA,0.11,VWS V14.01,2013-11-12 12:23:00,
2013-11-12 07:28:00,34.6,32.5,30.02,NNW,348,1.0,10.0,92,0.03,,-RA,0.11,VWS V14.01,2013-11-12 12:28:00,
2013-11-12 07:33:00,34.4,31.8,30.02,NNE,28,2.0,3.0,90,0.01,,-RA,0.11,VWS V14.01,2013-11-12 12:33:00,
2013-11-12 07:38:00,34.3,32.0,30.03,WNW,297,0.0,9.0,91,0.01,,-RA,0.11,VWS V14.01,2013-11-12 12:38:00,
2013-11-12 07:43:00,34.2,31.6,30.03,NNW,342,0.0,9.0,90,0.01,,-RA,0.11,VWS V14.01,2013-11-12 12:43:00,
2013-11-12 07:48:00,34.1,31.5,30.03,NE,36,0.0,9.0,90,0.01,,-RA,0.11,VWS V14.01,2013-11-12 12:48:00,
2013-11-12 07:53:00,34.1,30.9,30.03,WNW,284,2.0,9.0,88,0.01,,-RA,0.11,VWS V14.01,2013-11-12 12:53:00,
2013-11-12 07:58:00,34.1,30.9,30.03,NNE,19,0.0,9.0,88,0.01,,-RA,0.11,VWS V14.01,2013-11-12 12:58:00,
2013-11-12 08:03:00,34.2,31.3,30.03,NNE,19,0.0,2.0,89,0.01,,,0.11,VWS V14.01,2013-11-12 13:03:00,
2013-11-12 08:08:00,34.1,31.2,30.03,NE,46,2.0,2.0,89,0.01,,,0.11,VWS V14.01,2013-11-12 13:08:00,
2013-11-12 08:13:00,34.1,30.9,30.03,South,191,0.0,2.0,88,0.01,,,0.11,VWS V14.01,2013-11-12 13:13:00,
2013-11-12 08:18:00,34.1,31.2,30.03,SSW,192,0.0,2.0,89,0.01,,,0.11,VWS V14.01,2013-11-12 13:18:00,
2013-11-12 08:23:00,34.0,31.1,30.03,NE,49,1.0,3.0,89,0.01,,,0.11,VWS V14.01,2013-11-12 13:23:00,
2013-11-12 08:28:00,34.0,31.1,30.04,SW,230,2.0,4.0,89,0.01,,,0.11,VWS V14.01,2013-11-12 13:28:00,
2013-11-12 08:33:00,34.1,31.5,30.04,North,350,2.0,6.0,90,0.00,,,0.11,VWS V14.01,2013-11-12 13:33:00,
2013-11-12 08:38:00,34.1,31.5,30.04,North,5,1.0,6.0,90,0.00,,,0.11,VWS V14.01,2013-11-12 13:38:00,
2013-11-12 08:43:00,34.3,31.7,30.04,NNE,12,0.0,6.0,90,0.00,,,0.11,VWS V14.01,2013-11-12 13:43:00,
2013-11-12 08:48:00,34.3,31.4,30.05,SE,130,0.0,6.0,89,0.00,,OVC060,0.11,VWS V14.01,2013-11-12 13:48:00,
2013-11-12 08:53:00,34.4,30.9,30.04,NNW,335,0.0,6.0,87,0.00,,OVC060,0.11,VWS V14.01,2013-11-12 13:53:00,
2013-11-12 08:58:00,34.4,31.2,30.05,North,5,0.0,6.0,88,0.00,,OVC060,0.11,VWS V14.01,2013-11-12 13:58:00,
2013-11-12 09:03:00,34.4,30.1,30.05,NW,325,1.0,5.0,84,0.00,,OVC060,0.11,VWS V14.01,2013-11-12 14:03:00,
2013-11-12 09:09:00,34.4,28.9,30.05,West,263,2.0,8.0,80,0.00,,OVC060,0.11,VWS V14.01,2013-11-12 14:09:00,
2013-11-12 09:14:00,34.4,27.3,30.05,NW,317,0.0,8.0,75,0.00,,OVC060,0.11,VWS V14.01,2013-11-12 14:14:00,
2013-11-12 09:19:00,34.3,27.9,30.06,ENE,63,0.0,8.0,77,0.00,,OVC060,0.11,VWS V14.01,2013-11-12 14:19:00,
2013-11-12 09:24:00,34.3,27.9,30.06,NW,304,1.0,8.0,77,0.00,,OVC060,0.11,VWS V14.01,2013-11-12 14:24:00,
2013-11-12 09:29:00,34.3,26.9,30.06,NNW,344,0.0,8.0,74,0.00,,OVC060,0.11,VWS V14.01,2013-11-12 14:29:00,
2013-11-12 09:34:00,34.4,27.6,30.06,NW,319,2.0,3.0,76,0.00,,OVC060,0.11,VWS V14.01,2013-11-12 14:34:00,
2013-11-12 09:39:00,34.5,26.4,30.06,WNW,285,1.0,6.0,72,0.00,,OVC060,0.11,VWS V14.01,2013-11-12 14:39:00,
2013-11-12 09:44:00,34.6,26.9,30.07,North,5,2.0,7.0,73,0.00,,OVC060,0.11,VWS V14.01,2013-11-12 14:44:00,
2013-11-12 09:49:00,34.6,26.2,30.06,ESE,121,0.0,7.0,71,0.00,,OVC065,0.11,VWS V14.01,2013-11-12 14:49:00,
2013-11-12 09:54:00,34.6,26.2,30.06,West,278,2.0,7.0,71,0.00,,OVC065,0.11,VWS V14.01,2013-11-12 14:54:00,
2013-11-12 09:59:00,34.6,25.8,30.06,NE,47,0.0,7.0,70,0.00,,OVC065,0.11,VWS V14.01,2013-11-12 14:59:00,
2013-11-12 10:04:00,34.6,25.5,30.07,North,10,0.0,3.0,69,0.00,,OVC065,0.11,VWS V14.01,2013-11-12 15:04:00,
2013-11-12 10:09:00,34.6,25.5,30.07,NE,44,1.0,7.0,69,0.00,,OVC065,0.11,VWS V14.01,2013-11-12 15:09:00,
2013-11-12 10:14:00,34.6,24.8,30.07,NW,322,4.0,7.0,67,0.00,,OVC065,0.11,VWS V14.01,2013-11-12 15:14:00,
2013-11-12 10:19:00,34.6,24.8,30.07,WNW,296,1.0,11.0,67,0.00,,OVC065,0.11,VWS V14.01,2013-11-12 15:19:00,
2013-11-12 10:24:00,34.6,24.4,30.07,NE,39,3.0,11.0,66,0.00,,OVC065,0.11,VWS V14.01,2013-11-12 15:24:00,
2013-11-12 10:29:00,34.6,24.8,30.07,North,9,4.0,11.0,67,0.00,,OVC065,0.11,VWS V14.01,2013-11-12 15:29:00,
2013-11-12 10:34:00,34.6,23.3,30.07,North,349,4.0,6.0,63,0.00,,OVC065,0.11,VWS V14.01,2013-11-12 15:34:00,
2013-11-12 10:39:00,34.6,23.3,30.07,NW,311,1.0,9.0,63,0.00,,OVC065,0.11,VWS V14.01,2013-11-12 15:39:00,
2013-11-12 10:44:00,34.7,23.0,30.07,NW,319,4.0,10.0,62,0.00,,OVC065,0.11,VWS V14.01,2013-11-12 15:44:00,
2013-11-12 10:49:00,34.7,23.0,30.07,WNW,294,4.0,10.0,62,0.00,,OVC070,0.11,VWS V14.01,2013-11-12 15:49:00,
2013-11-12 10:54:00,34.7,23.0,30.07,WSW,242,1.0,10.0,62,0.00,,OVC070,0.11,VWS V14.01,2013-11-12 15:54:00,
2013-11-12 10:59:00,34.6,21.8,30.06,NNW,333,5.0,17.0,59,0.00,,OVC070,0.11,VWS V14.01,2013-11-12 15:59:00,
2013-11-12 11:04:00,34.5,20.9,30.07,North,355,5.0,10.0,57,0.00,,OVC070,0.11,VWS V14.01,2013-11-12 16:04:00,
2013-11-12 11:09:00,34.5,22.1,30.06,WNW,302,2.0,10.0,60,0.00,,OVC070,0.11,VWS V14.01,2013-11-12 16:09:00,
2013-11-12 11:14:00,34.4,22.0,30.07,North,9,2.0,10.0,60,0.00,,OVC070,0.11,VWS V14.01,2013-11-12 16:14:00,
2013-11-12 11:19:00,34.4,21.6,30.06,NE,36,5.0,10.0,59,0.00,,OVC070,0.11,VWS V14.01,2013-11-12 16:19:00,
2013-11-12 11:24:00,34.4,22.7,30.06,West,279,3.0,10.0,62,0.00,,OVC070,0.11,VWS V14.01,2013-11-12 16:24:00,
2013-11-12 11:29:00,34.5,22.1,30.06,North,360,0.0,10.0,60,0.00,,OVC070,0.11,VWS V14.01,2013-11-12 16:29:00,
2013-11-12 11:34:00,34.5,21.7,30.06,NW,326,1.0,3.0,59,0.00,,OVC070,0.11,VWS V14.01,2013-11-12 16:34:00,
2013-11-12 11:39:00,34.5,22.1,30.07,NNE,23,3.0,9.0,60,0.00,,OVC070,0.11,VWS V14.01,2013-11-12 16:39:00,
2013-11-12 11:44:00,34.5,21.7,30.06,North,11,2.0,9.0,59,0.00,,OVC070,0.11,VWS V14.01,2013-11-12 16:44:00,
2013-11-12 11:49:00,34.6,21.8,30.06,NNW,330,4.0,9.0,59,0.00,,OVC080,0.11,VWS V14.01,2013-11-12 16:49:00,
2013-11-12 11:54:00,34.5,21.7,30.06,West,281,0.0,9.0,59,0.00,,OVC080,0.11,VWS V14.01,2013-11-12 16:54:00,
2013-11-12 11:59:00,34.5,22.5,30.06,North,10,7.0,9.0,61,0.00,,OVC080,0.11,VWS V14.01,2013-11-12 16:59:00,
2013-11-12 12:04:00,34.6,22.2,30.06,North,355,0.0,4.0,60,0.00,,OVC080,0.11,VWS V14.01,2013-11-12 17:04:00,
2013-11-12 12:09:00,34.5,22.5,30.06,ENE,65,1.0,6.0,61,0.00,,OVC080,0.11,VWS V14.01,2013-11-12 17:09:00,
2013-11-12 12:14:00,34.6,23.3,30.06,NE,38,4.0,6.0,63,0.00,,OVC080,0.11,VWS V14.01,2013-11-12 17:14:00,
2013-11-12 12:19:00,34.7,22.6,30.06,South,178,1.0,6.0,61,0.00,,OVC080,0.11,VWS V14.01,2013-11-12 17:19:00,
2013-11-12 12:24:00,34.8,23.5,30.06,NNE,20,1.0,11.0,63,0.00,,OVC080,0.11,VWS V14.01,2013-11-12 17:24:00,
2013-11-12 12:29:00,34.8,23.9,30.06,ENE,68,3.0,11.0,64,0.00,,OVC080,0.11,VWS V14.01,2013-11-12 17:29:00,
2013-11-12 12:34:00,34.8,23.1,30.06,NE,34,0.0,2.0,62,0.00,,OVC080,0.11,VWS V14.01,2013-11-12 17:34:00,
2013-11-12 12:39:00,34.9,23.6,30.06,West,281,0.0,4.0,63,0.00,,OVC080,0.11,VWS V14.01,2013-11-12 17:39:00,
2013-11-12 12:44:00,35.0,23.3,30.06,North,355,2.0,5.0,62,0.00,,OVC080,0.11,VWS V14.01,2013-11-12 17:44:00,
2013-11-12 12:49:00,35.0,22.9,30.06,North,360,1.0,8.0,61,0.00,,SCT110,0.11,VWS V14.01,2013-11-12 17:49:00,
2013-11-12 12:54:00,34.8,22.7,30.06,NNE,23,0.0,8.0,61,0.00,,SCT110,0.11,VWS V14.01,2013-11-12 17:54:00,
2013-11-12 12:59:00,34.8,22.7,30.07,NE,39,3.0,8.0,61,0.00,,SCT110,0.11,VWS V14.01,2013-11-12 17:59:00,
2013-11-12 13:04:00,34.7,22.2,30.07,NE,38,5.0,6.0,60,0.00,,SCT110,0.11,VWS V14.01,2013-11-12 18:04:00,
2013-11-12 13:09:00,34.6,22.2,30.06,NE,40,7.0,9.0,60,0.00,,SCT110,0.11,VWS V14.01,2013-11-12 18:09:00,
2013-11-12 13:14:00,34.6,21.8,30.06,NW,319,3.0,9.0,59,0.00,,SCT110,0.11,VWS V14.01,2013-11-12 18:14:00,
2013-11-12 13:19:00,34.4,21.2,30.07,ENE,72,3.0,9.0,58,0.00,,SCT110,0.11,VWS V14.01,2013-11-12 18:19:00,
2013-11-12 13:24:00,34.4,21.6,30.06,NNW,342,1.0,10.0,59,0.00,,SCT110,0.11,VWS V14.01,2013-11-12 18:24:00,
2013-11-12 13:29:00,34.4,22.0,30.07,NNW,331,0.0,10.0,60,0.00,,SCT110,0.11,VWS V14.01,2013-11-12 18:29:00,
2013-11-12 13:34:00,34.4,21.2,30.07,NW,304,1.0,9.0,58,0.00,,SCT110,0.11,VWS V14.01,2013-11-12 18:34:00,
2013-11-12 13:39:00,34.4,22.0,30.07,West,263,2.0,9.0,60,0.00,,SCT110,0.11,VWS V14.01,2013-11-12 18:39:00,
2013-11-12 13:44:00,34.4,22.0,30.08,North,5,6.0,9.0,60,0.00,,SCT110,0.11,VWS V14.01,2013-11-12 18:44:00,
2013-11-12 13:49:00,34.4,21.6,30.08,NNE,15,5.0,12.0,59,0.00,,CLR,0.11,VWS V14.01,2013-11-12 18:49:00,
2013-11-12 13:54:00,34.4,21.6,30.08,North,350,1.0,12.0,59,0.00,,CLR,0.11,VWS V14.01,2013-11-12 18:54:00,
2013-11-12 13:59:00,34.4,22.0,30.08,WSW,244,2.0,12.0,60,0.00,,CLR,0.11,VWS V14.01,2013-11-12 18:59:00,
2013-11-12 14:04:00,34.4,22.0,30.08,NNW,339,3.0,9.0,60,0.00,,CLR,0.11,VWS V14.01,2013-11-12 19:04:00,
2013-11-12 14:09:00,34.4,21.6,30.08,NW,307,1.0,11.0,59,0.00,,CLR,0.11,VWS V14.01,2013-11-12 19:09:00,
2013-11-12 14:14:00,34.4,21.6,30.09,WNW,290,2.0,11.0,59,0.00,,CLR,0.11,VWS V14.01,2013-11-12 19:14:00,
2013-11-12 14:19:00,34.4,21.6,30.09,NNW,337,1.0,11.0,59,0.00,,CLR,0.11,VWS V14.01,2013-11-12 19:19:00,
2013-11-12 14:24:00,34.3,21.5,30.09,NE,43,7.0,11.0,59,0.00,,CLR,0.11,VWS V14.01,2013-11-12 19:24:00,
2013-11-12 14:29:00,34.3,21.1,30.09,North,355,4.0,11.0,58,0.00,,CLR,0.11,VWS V14.01,2013-11-12 19:29:00,
2013-11-12 14:34:00,34.2,20.6,30.09,North,5,5.0,9.0,57,0.00,,CLR,0.11,VWS V14.01,2013-11-12 19:34:00,
2013-11-12 14:39:00,34.1,20.5,30.09,NW,311,0.0,9.0,57,0.00,,CLR,0.11,VWS V14.01,2013-11-12 19:39:00,
2013-11-12 14:44:00,34.0,20.0,30.09,NNE,17,4.0,13.0,56,0.00,,CLR,0.11,VWS V14.01,2013-11-12 19:44:00,
2013-11-12 14:49:00,33.8,20.2,30.10,NNW,343,1.0,13.0,57,0.00,,BKN130,0.11,VWS V14.01,2013-11-12 19:49:00,
2013-11-12 14:54:00,33.8,20.2,30.10,NW,317,0.0,13.0,57,0.00,,BKN130,0.11,VWS V14.01,2013-11-12 19:54:00,
2013-11-12 14:59:00,33.8,20.6,30.10,North,355,2.0,13.0,58,0.00,,BKN130,0.11,VWS V14.01,2013-11-12 19:59:00,
2013-11-12 15:04:00,33.8,21.0,30.10,WNW,287,0.0,2.0,59,0.00,,BKN130,0.11,VWS V14.01,2013-11-12 20:04:00,
2013-11-12 15:09:00,33.7,21.3,30.10,NNE,13,3.0,5.0,60,0.00,,BKN130,0.11,VWS V14.01,2013-11-12 20:09:00,
2013-11-12 15:14:00,33.7,20.9,30.10,NNE,20,1.0,6.0,59,0.00,,BKN130,0.11,VWS V14.01,2013-11-12 20:14:00,
2013-11-12 15:19:00,33.6,20.8,30.10,NNE,23,2.0,6.0,59,0.00,,BKN130,0.11,VWS V14.01,2013-11-12 20:19:00,
2013-11-12 15:24:00,33.6,20.8,30.11,NNW,343,1.0,8.0,59,0.00,,BKN130,0.11,VWS V14.01,2013-11-12 20:24:00,
2013-11-12 15:29:00,33.5,20.7,30.11,SE,126,2.0,8.0,59,0.00,,BKN130,0.11,VWS V14.01,2013-11-12 20:29:00,
2013-11-12 15:34:00,33.4,20.6,30.11,WNW,283,4.0,5.0,59,0.00,,BKN130,0.11,VWS V14.01,2013-11-12 20:34:00,
2013-11-12 15:39:00,33.4,21.0,30.11,North,5,4.0,8.0,60,0.00,,BKN130,0.11,VWS V14.01,2013-11-12 20:39:00,
2013-11-12 15:44:00,33.3,20.5,30.11,NE,36,0.0,8.0,59,0.00,,BKN130,0.11,VWS V14.01,2013-11-12 20:44:00,
2013-11-12 15:49:00,33.2,20.0,30.11,North,11,1.0,8.0,58,0.00,,BKN130,0.11,VWS V14.01,2013-11-12 20:49:00,
2013-11-12 15:54:00,33.2,21.2,30.11,NNE,20,2.0,8.0,61,0.00,,BKN130,0.11,VWS V14.01,2013-11-12 20:54:00,
2013-11-12 15:59:00,33.1,20.7,30.11,SW,227,2.0,8.0,60,0.00,,BKN130,0.11,VWS V14.01,2013-11-12 20:59:00,
2013-11-12 16:04:00,33.0,21.0,30.12,NNW,339,0.0,3.0,61,0.00,,BKN130,0.11,VWS V14.01,2013-11-12 21:04:00,
2013-11-12 16:09:00,32.9,21.3,30.12,NNE,16,0.0,3.0,62,0.00,,BKN130,0.11,VWS V14.01,2013-11-12 21:09:00,
2013-11-12 16:14:00,32.8,20.9,30.12,NE,49,0.0,3.0,61,0.00,,BKN130,0.11,VWS V14.01,2013-11-12 21:14:00,
2013-11-12 16:19:00,32.7,21.1,30.12,SW,233,0.0,3.0,62,0.00,,BKN130,0.11,VWS V14.01,2013-11-12 21:19:00,
2013-11-12 16:24:00,32.6,21.4,30.12,WSW,239,0.0,3.0,63,0.00,,BKN130,0.11,VWS V14.01,2013-11-12 21:24:00,
2013-11-12 16:29:00,32.6,21.4,30.12,WSW,239,0.0,3.0,63,0.00,,BKN130,0.11,VWS V14.01,2013-11-12 21:29:00,
2013-11-12 16:34:00,32.5,21.3,30.13,WNW,295,0.0,0.0,63,0.00,,BKN130,0.11,VWS V14.01,2013-11-12 21:34:00,
2013-11-12 16:39:00,32.3,21.5,30.13,SSE,161,0.0,2.0,64,0.00,,BKN130,0.11,VWS V14.01,2013-11-12 21:39:00,
2013-11-12 16:45:00,32.2,20.7,30.13,SSE,161,0.0,2.0,62,0.00,,BKN130,0.11,VWS V14.01,2013-11-12 21:45:00,
2013-11-12 16:50:00,32.0,20.5,30.13,SSE,161,0.0,2.0,62,0.00,,CLR,0.11,VWS V14.01,2013-11-12 21:50:00,
2013-11-12 16:55:00,32.0,20.5,30.13,South,187,0.0,2.0,62,0.00,,CLR,0.11,VWS V14.01,2013-11-12 21:55:00,
2013-11-12 17:00:00,31.9,20.4,30.14,South,187,0.0,2.0,62,0.00,,CLR,0.11,VWS V14.01,2013-11-12 22:00:00,
2013-11-12 17:05:00,31.9,20.4,30.14,NNE,15,0.0,1.0,62,0.00,,CLR,0.11,VWS V14.01,2013-11-12 22:05:00,
2013-11-12 17:10:00,31.8,20.3,30.14,NNE,15,0.0,1.0,62,0.00,,CLR,0.11,VWS V14.01,2013-11-12 22:10:00,
2013-11-12 17:15:00,31.7,20.6,30.14,NE,55,0.0,1.0,63,0.00,,CLR,0.11,VWS V14.01,2013-11-12 22:15:00,
2013-11-12 17:20:00,31.6,20.8,30.14,NE,38,0.0,1.0,64,0.00,,CLR,0.11,VWS V14.01,2013-11-12 22:20:00,
2013-11-12 17:25:00,31.6,20.5,30.14,NE,38,0.0,1.0,63,0.00,,CLR,0.11,VWS V14.01,2013-11-12 22:25:00,
2013-11-12 17:30:00,31.6,20.8,30.15,NE,38,0.0,1.0,64,0.00,,CLR,0.11,VWS V14.01,2013-11-12 22:30:00,
2013-11-12 17:35:00,31.6,20.8,30.15,ENE,59,1.0,1.0,64,0.00,,CLR,0.11,VWS V14.01,2013-11-12 22:35:00,
2013-11-12 17:40:00,31.5,20.7,30.15,East,90,0.0,2.0,64,0.00,,CLR,0.11,VWS V14.01,2013-11-12 22:40:00,
2013-11-12 17:45:00,31.4,20.6,30.15,East,90,0.0,2.0,64,0.00,,CLR,0.11,VWS V14.01,2013-11-12 22:45:00,
2013-11-12 17:50:00,31.3,20.5,30.15,NE,45,1.0,2.0,64,0.00,,CLR,0.11,VWS V14.01,2013-11-12 22:50:00,
2013-11-12 17:55:00,31.3,20.2,30.15,West,279,0.0,2.0,63,0.00,,CLR,0.11,VWS V14.01,2013-11-12 22:55:00,
2013-11-12 18:00:00,31.2,20.5,30.15,North,11,1.0,2.0,64,0.00,,CLR,0.11,VWS V14.01,2013-11-12 23:00:00,
2013-11-12 18:05:00,31.2,20.5,30.15,NNE,15,0.0,2.0,64,0.00,,CLR,0.11,VWS V14.01,2013-11-12 23:05:00,
2013-11-12 18:10:00,31.2,19.7,30.15,North,5,0.0,2.0,62,0.00,,CLR,0.11,VWS V14.01,2013-11-12 23:10:00,
2013-11-12 18:15:00,31.3,19.8,30.15,NNE,15,0.0,2.0,62,0.00,,CLR,0.11,VWS V14.01,2013-11-12 23:15:00,
2013-11-12 18:20:00,31.3,20.2,30.15,NNE,28,1.0,5.0,63,0.00,,CLR,0.11,VWS V14.01,2013-11-12 23:20:00,
2013-11-12 18:25:00,31.3,20.2,30.15,NNE,28,0.0,5.0,63,0.00,,CLR,0.11,VWS V14.01,2013-11-12 23:25:00,
2013-11-12 18:30:00,31.2,20.1,30.16,NE,38,0.0,5.0,63,0.00,,CLR,0.11,VWS V14.01,2013-11-12 23:30:00,
2013-11-12 18:35:00,31.2,19.7,30.16,NE,38,0.0,1.0,62,0.00,,CLR,0.11,VWS V14.01,2013-11-12 23:35:00,
2013-11-12 18:40:00,31.1,19.6,30.16,SE,139,0.0,1.0,62,0.00,,CLR,0.11,VWS V14.01,2013-11-12 23:40:00,
2013-11-12 18:45:00,31.0,19.5,30.16,NNE,18,0.0,4.0,62,0.00,,CLR,0.11,VWS V14.01,2013-11-12 23:45:00,
2013-11-12 18:50:00,30.9,19.0,30.16,North,355,1.0,4.0,61,0.00,,CLR,0.11,VWS V14.01,2013-11-12 23:50:00,
2013-11-12 18:55:00,30.8,19.3,30.16,NE,40,0.0,4.0,62,0.00,,CLR,0.11,VWS V14.01,2013-11-12 23:55:00,
2013-11-12 19:00:00,30.8,19.3,30.16,SSW,207,0.0,4.0,62,0.00,,CLR,0.11,VWS V14.01,2013-11-13 00:00:00,
2013-11-12 19:05:00,30.8,19.3,30.16,NW,326,0.0,3.0,62,0.00,,CLR,0.11,VWS V14.01,2013-11-13 00:05:00,
2013-11-12 19:10:00,30.8,19.3,30.16,SW,227,0.0,3.0,62,0.00,,CLR,0.11,VWS V14.01,2013-11-13 00:10:00,
2013-11-12 19:15:00,30.7,19.2,30.17,WSW,241,0.0,3.0,62,0.00,,CLR,0.11,VWS V14.01,2013-11-13 00:15:00,
2013-11-12 19:20:00,30.7,18.9,30.16,SW,227,0.0,5.0,61,0.00,,CLR,0.11,VWS V14.01,2013-11-13 00:20:00,
2013-11-12 19:25:00,30.7,19.6,30.17,NNW,341,0.0,5.0,63,0.00,,CLR,0.11,VWS V14.01,2013-11-13 00:25:00,
2013-11-12 19:30:00,30.6,19.5,30.17,WSW,241,0.0,5.0,63,0.00,,CLR,0.11,VWS V14.01,2013-11-13 00:30:00,
2013-11-12 19:35:00,30.4,19.7,30.17,SSW,213,3.0,4.0,64,0.00,,CLR,0.11,VWS V14.01,2013-11-13 00:35:00,
2013-11-12 19:40:00,30.3,19.6,30.17,North,10,2.0,7.0,64,0.00,,CLR,0.11,VWS V14.01,2013-11-13 00:40:00,
2013-11-12 19:46:00,30.3,19.2,30.17,NNW,345,1.0,7.0,63,0.00,,CLR,0.11,VWS V14.01,2013-11-13 00:46:00,
2013-11-12 19:51:00,30.3,19.2,30.17,North,9,2.0,7.0,63,0.00,,CLR,0.11,VWS V14.01,2013-11-13 00:51:00,
2013-11-12 19:56:00,30.3,19.2,30.17,NNE,28,3.0,7.0,63,0.00,,CLR,0.11,VWS V14.01,2013-11-13 00:56:00,
2013-11-12 20:01:00,30.3,19.6,30.17,NNE,22,3.0,7.0,64,0.00,,CLR,0.11,VWS V14.01,2013-11-13 01:01:00,
2013-11-12 20:06:00,30.3,19.2,30.17,NE,39,4.0,7.0,63,0.00,,CLR,0.11,VWS V14.01,2013-11-13 01:06:00,
2013-11-12 20:11:00,30.4,19.3,30.17,NNE,24,1.0,7.0,63,0.00,,CLR,0.11,VWS V14.01,2013-11-13 01:11:00,
2013-11-12 20:16:00,30.3,19.2,30.17,NW,315,0.0,7.0,63,0.00,,CLR,0.11,VWS V14.01,2013-11-13 01:16:00,
2013-11-12 20:21:00,30.3,19.2,30.17,NW,323,0.0,7.0,63,0.00,,CLR,0.11,VWS V14.01,2013-11-13 01:21:00,
2013-11-12 20:26:00,30.2,19.1,30.17,NNW,333,1.0,7.0,63,0.00,,CLR,0.11,VWS V14.01,2013-11-13 01:26:00,
2013-11-12 20:31:00,30.1,19.4,30.17,North,355,0.0,7.0,64,0.00,,CLR,0.11,VWS V14.01,2013-11-13 01:31:00,
2013-11-12 20:36:00,30.0,19.0,30.18,East,84,0.0,2.0,63,0.00,,CLR,0.11,VWS V14.01,2013-11-13 01:36:00,
2013-11-12 20:41:00,29.9,18.9,30.18,West,281,0.0,4.0,63,0.00,,CLR,0.11,VWS V14.01,2013-11-13 01:41:00,
2013-11-12 20:46:00,29.7,18.7,30.18,NNE,23,2.0,5.0,63,0.00,,CLR,0.11,VWS V14.01,2013-11-13 01:46:00,
2013-11-12 20:51:00,29.7,18.7,30.18,South,173,0.0,5.0,63,0.00,,CLR,0.11,VWS V14.01,2013-11-13 01:51:00,
2013-11-12 20:56:00,29.7,18.7,30.18,South,173,0.0,5.0,63,0.00,,CLR,0.11,VWS V14.01,2013-11-13 01:56:00,
2013-11-12 21:01:00,29.6,18.6,30.18,SSW,207,0.0,5.0,63,0.00,,CLR,0.11,VWS V14.01,2013-11-13 02:01:00,
2013-11-12 21:06:00,29.5,18.8,30.19,SSW,207,0.0,1.0,64,0.00,,CLR,0.11,VWS V14.01,2013-11-13 02:06:00,
2013-11-12 21:11:00,29.4,18.4,30.18,South,185,0.0,2.0,63,0.00,,CLR,0.11,VWS V14.01,2013-11-13 02:11:00,
2013-11-12 21:16:00,29.4,18.4,30.18,South,188,0.0,3.0,63,0.00,,CLR,0.11,VWS V14.01,2013-11-13 02:16:00,
2013-11-12 21:21:00,29.2,18.2,30.18,South,188,0.0,3.0,63,0.00,,CLR,0.11,VWS V14.01,2013-11-13 02:21:00,
2013-11-12 21:26:00,29.1,18.5,30.18,West,260,0.0,3.0,64,0.00,,CLR,0.11,VWS V14.01,2013-11-13 02:26:00,
2013-11-12 21:31:00,29.0,18.0,30.19,NNE,24,0.0,3.0,63,0.00,,CLR,0.11,VWS V14.01,2013-11-13 02:31:00,
2013-11-12 21:36:00,28.8,17.8,30.19,NNE,24,0.0,0.0,63,0.00,,CLR,0.11,VWS V14.01,2013-11-13 02:36:00,
2013-11-12 21:41:00,28.7,18.1,30.18,NE,51,0.0,3.0,64,0.00,,CLR,0.11,VWS V14.01,2013-11-13 02:41:00,
2013-11-12 21:46:00,28.5,18.2,30.19,ENE,67,1.0,3.0,65,0.00,,CLR,0.11,VWS V14.01,2013-11-13 02:46:00,
2013-11-12 21:51:00,28.5,18.2,30.19,NW,325,0.0,3.0,65,0.00,,CLR,0.11,VWS V14.01,2013-11-13 02:51:00,
2013-11-12 21:56:00,28.4,18.1,30.18,ESE,117,2.0,3.0,65,0.00,,CLR,0.11,VWS V14.01,2013-11-13 02:56:00,
2013-11-12 22:01:00,28.4,18.1,30.19,NE,53,2.0,3.0,65,0.00,,CLR,0.11,VWS V14.01,2013-11-13 03:01:00,
2013-11-12 22:07:00,28.4,18.1,30.19,WSW,246,1.0,4.0,65,0.00,,CLR,0.11,VWS V14.01,2013-11-13 03:07:00,
2013-11-12 22:12:00,28.5,17.9,30.19,WSW,238,2.0,4.0,64,0.00,,CLR,0.11,VWS V14.01,2013-11-13 03:12:00,
2013-11-12 22:17:00,28.6,18.0,30.19,NNW,327,1.0,7.0,64,0.00,,CLR,0.11,VWS V14.01,2013-11-13 03:17:00,
2013-11-12 22:22:00,28.6,18.0,30.19,ESE,105,0.0,7.0,64,0.00,,CLR,0.11,VWS V14.01,2013-11-13 03:22:00,
2013-11-12 22:27:00,28.6,18.0,30.19,SSW,206,1.0,7.0,64,0.00,,CLR,0.11,VWS V14.01,2013-11-13 03:27:00,
2013-11-12 22:32:00,28.5,17.5,30.19,SSW,213,1.0,7.0,63,0.00,,CLR,0.11,VWS V14.01,2013-11-13 03:32:00,
2013-11-12 22:37:00,28.5,17.5,30.19,ESE,113,0.0,2.0,63,0.00,,CLR,0.11,VWS V14.01,2013-11-13 03:37:00,
2013-11-12 22:42:00,28.5,17.5,30.19,NNE,18,0.0,2.0,63,0.00,,CLR,0.11,VWS V14.01,2013-11-13 03:42:00,
2013-11-12 22:47:00,28.4,17.4,30.19,ESE,107,0.0,2.0,63,0.00,,CLR,0.11,VWS V14.01,2013-11-13 03:47:00,
2013-11-12 22:52:00,28.4,17.4,30.19,ESE,123,0.0,2.0,63,0.00,,CLR,0.11,VWS V14.01,2013-11-13 03:52:00,
2013-11-12 22:57:00,28.2,18.0,30.19,NNE,21,0.0,2.0,65,0.00,,CLR,0.11,VWS V14.01,2013-11-13 03:57:00,
2013-11-12 23:02:00,28.1,18.2,30.19,NNE,21,0.0,2.0,66,0.00,,CLR,0.11,VWS V14.01,2013-11-13 04:02:00,
2013-11-12 23:07:00,27.9,18.4,30.19,NNE,21,0.0,1.0,67,0.00,,CLR,0.11,VWS V14.01,2013-11-13 04:07:00,
2013-11-12 23:12:00,27.8,17.9,30.19,NNE,21,0.0,1.0,66,0.00,,CLR,0.11,VWS V14.01,2013-11-13 04:12:00,
2013-11-12 23:17:00,27.6,17.7,30.19,WSW,250,0.0,2.0,66,0.00,,CLR,0.11,VWS V14.01,2013-11-13 04:17:00,
2013-11-12 23:22:00,27.6,17.7,30.19,SW,215,0.0,3.0,66,0.00,,CLR,0.11,VWS V14.01,2013-11-13 04:22:00,
2013-11-12 23:27:00,27.6,17.4,30.19,SW,215,0.0,3.0,65,0.00,,CLR,0.11,VWS V14.01,2013-11-13 04:27:00,
2013-11-12 23:32:00,27.5,17.6,30.19,SE,142,0.0,3.0,66,0.00,,CLR,0.11,VWS V14.01,2013-11-13 04:32:00,
2013-11-12 23:37:00,27.4,17.2,30.20,SW,232,0.0,3.0,65,0.00,,CLR,0.11,VWS V14.01,2013-11-13 04:37:00,
2013-11-12 23:42:00,27.4,17.2,30.20,SW,232,0.0,3.0,65,0.00,,CLR,0.11,VWS V14.01,2013-11-13 04:42:00,
2013-11-12 23:47:00,27.4,17.5,30.20,SW,232,0.0,3.0,66,0.00,,CLR,0.11,VWS V14.01,2013-11-13 04:47:00,
2013-11-12 23:52:00,27.3,17.1,30.19,SW,231,0.0,3.0,65,0.00,,CLR,0.11,VWS V14.01,2013-11-13 04:52:00,
2013-11-12 23:57:00,27.1,17.3,30.20,SW,232,0.0,3.0,66,0.00,,CLR,0.11,VWS V14.01,2013-11-13 04:57:00,